createdAt,value
2023-02-05T00:01:24.966Z,1.77
2023-02-05T00:03:51.658Z,1.81
2023-02-05T00:06:18.422Z,1.93
2023-02-05T00:08:44.961Z,2.00
2023-02-05T00:11:11.439Z,1.89
2023-02-05T00:13:40.840Z,1.81
2023-02-05T00:16:17.594Z,1.69
2023-02-05T00:18:44.937Z,1.63
2023-02-05T00:21:13.323Z,1.71
2023-02-05T00:23:40.683Z,1.89
2023-02-05T00:26:08.156Z,1.98
2023-02-05T00:28:36.640Z,2.04
2023-02-05T00:31:10.377Z,1.98
2023-02-05T00:33:37.109Z,2.11
2023-02-05T00:36:08.572Z,2.24
2023-02-05T00:38:36.250Z,2.32
2023-02-05T00:41:03.967Z,2.38
2023-02-05T00:43:31.007Z,2.23
2023-02-05T00:45:57.530Z,2.12
2023-02-05T00:48:24.076Z,2.10
2023-02-05T00:50:52.371Z,2.20
2023-02-05T00:53:21.425Z,2.28
2023-02-05T00:55:48.257Z,2.23
2023-02-05T00:58:15.704Z,2.15
2023-02-05T01:00:42.514Z,2.11
2023-02-05T01:03:09.504Z,2.16
2023-02-05T01:05:38.376Z,2.29
2023-02-05T01:08:07.477Z,2.44
2023-02-05T01:10:34.752Z,2.48
2023-02-05T01:13:01.264Z,2.55
2023-02-05T01:15:27.772Z,2.47
2023-02-05T01:17:54.337Z,2.45
2023-02-05T01:20:21.698Z,2.55
2023-02-05T01:22:48.253Z,2.62
2023-02-05T01:25:14.751Z,2.61
2023-02-05T01:27:41.280Z,2.45
2023-02-05T01:30:08.857Z,2.36
2023-02-05T01:32:35.570Z,2.48
2023-02-05T01:35:02.017Z,2.55
2023-02-05T01:37:28.465Z,2.61
2023-02-05T01:39:54.979Z,2.49
2023-02-05T01:42:32.622Z,2.45
2023-02-05T01:45:23.652Z,2.31
2023-02-05T01:47:58.325Z,2.45
2023-02-05T01:50:48.310Z,2.48
2023-02-05T01:53:31.172Z,2.52
2023-02-05T01:56:06.137Z,2.52
2023-02-05T01:58:42.477Z,2.44
2023-02-05T02:01:09.141Z,2.53
2023-02-05T02:03:36.385Z,2.59
2023-02-05T02:06:04.733Z,2.71
2023-02-05T02:08:32.821Z,2.72
2023-02-05T02:11:05.508Z,2.57
2023-02-05T02:13:36.802Z,2.64
2023-02-05T02:16:05.535Z,2.70
2023-02-05T02:18:36.313Z,2.76
2023-02-05T02:21:40.961Z,2.62
2023-02-05T02:24:40.187Z,2.58
2023-02-05T02:27:35.864Z,2.53
2023-02-05T02:30:40.765Z,2.68
2023-02-05T02:33:17.265Z,2.89
2023-02-05T02:35:54.793Z,2.98
2023-02-05T02:38:34.709Z,3.00
2023-02-05T02:41:23.963Z,3.01
2023-02-05T02:43:57.253Z,3.04
2023-02-05T02:46:54.100Z,3.04
2023-02-05T02:49:31.740Z,3.03
2023-02-05T02:52:04.823Z,3.00
2023-02-05T02:54:36.153Z,3.07
2023-02-05T02:57:09.289Z,3.12
2023-02-05T02:59:40.311Z,3.13
2023-02-05T03:02:12.703Z,3.14
2023-02-05T03:04:55.480Z,3.11
2023-02-05T03:07:47.716Z,3.04
2023-02-05T03:10:26.762Z,2.93
2023-02-05T03:12:56.070Z,2.97
2023-02-05T03:15:22.651Z,3.06
2023-02-05T03:17:53.119Z,3.09
2023-02-05T03:20:28.160Z,3.03
2023-02-05T03:22:56.378Z,2.92
2023-02-05T03:25:27.988Z,3.01
2023-02-05T03:27:55.500Z,3.06
2023-02-05T03:30:31.001Z,3.11
2023-02-05T03:33:40.832Z,3.09
2023-02-05T03:36:25.131Z,3.08
2023-02-05T03:39:23.706Z,3.20
2023-02-05T03:42:06.262Z,3.24
2023-02-05T03:45:07.936Z,3.25
2023-02-05T03:48:04.934Z,3.28
2023-02-05T03:50:49.122Z,3.32
2023-02-05T03:53:38.622Z,3.24
2023-02-05T03:56:18.345Z,3.30
2023-02-05T03:58:53.653Z,3.39
2023-02-05T04:01:20.928Z,3.52
2023-02-05T04:03:47.956Z,3.56
2023-02-05T04:06:14.727Z,3.59
2023-02-05T04:08:43.859Z,3.60
2023-02-05T04:11:12.546Z,3.59
2023-02-05T04:13:39.067Z,3.62
2023-02-05T04:16:05.706Z,3.67
2023-02-05T04:18:32.170Z,3.70
2023-02-05T04:20:59.883Z,3.70
2023-02-05T04:23:26.354Z,3.55
2023-02-05T04:25:54.209Z,3.51
2023-02-05T04:28:21.129Z,3.55
2023-02-05T04:30:47.697Z,3.61
2023-02-05T04:33:14.213Z,3.54
2023-02-05T04:35:40.691Z,3.47
2023-02-05T04:38:07.183Z,3.46
2023-02-05T04:40:33.723Z,3.48
2023-02-05T04:43:00.179Z,3.54
2023-02-05T04:45:30.759Z,3.65
2023-02-05T04:47:59.401Z,3.68
2023-02-05T04:50:26.713Z,3.65
2023-02-05T04:52:53.428Z,3.54
2023-02-05T04:55:20.020Z,3.48
2023-02-05T04:57:46.466Z,3.54
2023-02-05T05:00:13.874Z,3.59
2023-02-05T05:02:40.490Z,3.64
2023-02-05T05:05:07.277Z,3.66
2023-02-05T05:07:33.780Z,3.72
2023-02-05T05:10:00.228Z,3.77
2023-02-05T05:12:26.657Z,3.80
2023-02-05T05:14:54.238Z,3.77
2023-02-05T05:17:20.722Z,3.57
2023-02-05T05:19:47.152Z,3.53
2023-02-05T05:22:13.618Z,3.60
2023-02-05T05:24:40.092Z,3.65
2023-02-05T05:27:06.621Z,3.79
2023-02-05T05:29:33.127Z,3.90
2023-02-05T05:31:59.671Z,3.88
2023-02-05T05:34:26.238Z,3.85
2023-02-05T05:36:53.419Z,3.75
2023-02-05T05:39:38.580Z,3.68
2023-02-05T05:42:23.963Z,3.48
2023-02-05T05:44:52.124Z,3.55
2023-02-05T05:47:19.405Z,3.72
2023-02-05T05:49:46.489Z,3.81
2023-02-05T05:52:13.720Z,3.79
2023-02-05T05:54:40.456Z,3.80
2023-02-05T05:57:08.171Z,3.82
2023-02-05T05:59:34.994Z,3.88
2023-02-05T06:02:02.964Z,3.89
2023-02-05T06:04:30.221Z,3.82
2023-02-05T06:06:57.247Z,3.70
2023-02-05T06:09:23.922Z,3.67
2023-02-05T06:11:51.090Z,3.71
2023-02-05T06:14:17.576Z,3.78
2023-02-05T06:16:44.050Z,3.83
2023-02-05T06:19:10.499Z,3.85
2023-02-05T06:21:36.972Z,3.68
2023-02-05T06:24:03.666Z,3.53
2023-02-05T06:26:30.121Z,3.41
2023-02-05T06:29:03.069Z,3.46
2023-02-05T06:31:31.675Z,3.44
2023-02-05T06:33:58.194Z,3.33
2023-02-05T06:36:25.131Z,3.37
2023-02-05T06:38:51.615Z,3.49
2023-02-05T06:41:18.205Z,3.53
2023-02-05T06:43:45.007Z,3.65
2023-02-05T06:46:11.556Z,3.61
2023-02-05T06:48:38.110Z,3.39
2023-02-05T06:51:04.919Z,3.25
2023-02-05T06:53:31.391Z,3.35
2023-02-05T06:55:59.191Z,3.59
2023-02-05T06:58:25.728Z,3.67
2023-02-05T07:00:52.183Z,3.71
2023-02-05T07:03:18.686Z,3.73
2023-02-05T07:05:45.131Z,3.58
2023-02-05T07:08:11.675Z,3.60
2023-02-05T07:10:38.320Z,3.67
2023-02-05T07:13:05.989Z,3.72
2023-02-05T07:15:35.300Z,3.76
2023-02-05T07:18:02.032Z,3.78
2023-02-05T07:20:28.615Z,3.81
2023-02-05T07:22:55.056Z,3.86
2023-02-05T07:25:21.531Z,3.96
2023-02-05T07:27:48.061Z,4.00
2023-02-05T07:30:15.234Z,4.03
2023-02-05T07:32:41.701Z,4.06
2023-02-05T07:35:08.328Z,4.05
2023-02-05T07:37:37.313Z,3.81
2023-02-05T07:40:04.263Z,3.84
2023-02-05T07:42:31.650Z,3.96
2023-02-05T07:44:58.172Z,3.94
2023-02-05T07:47:24.645Z,3.75
2023-02-05T07:49:51.135Z,3.62
2023-02-05T07:52:17.674Z,3.57
2023-02-05T07:54:44.113Z,3.62
2023-02-05T07:57:10.618Z,3.60
2023-02-05T07:59:37.100Z,3.67
2023-02-05T08:02:04.169Z,3.75
2023-02-05T08:04:30.831Z,3.64
2023-02-05T08:06:57.339Z,3.73
2023-02-05T08:09:23.824Z,3.88
2023-02-05T08:11:50.313Z,4.01
2023-02-05T08:14:16.809Z,4.10
2023-02-05T08:16:43.318Z,4.17
2023-02-05T08:19:16.666Z,4.03
2023-02-05T08:21:43.907Z,4.11
2023-02-05T08:24:10.711Z,4.20
2023-02-05T08:26:37.234Z,4.22
2023-02-05T08:29:03.891Z,4.30
2023-02-05T08:31:30.441Z,4.33
2023-02-05T08:33:59.876Z,4.22
2023-02-05T08:36:28.459Z,4.14
2023-02-05T08:38:54.930Z,4.25
2023-02-05T08:41:21.990Z,4.34
2023-02-05T08:43:50.693Z,4.41
2023-02-05T08:46:24.520Z,4.48
2023-02-05T08:48:51.379Z,4.52
2023-02-05T08:51:22.912Z,4.56
2023-02-05T08:53:49.942Z,4.59
2023-02-05T08:56:19.226Z,4.58
2023-02-05T08:58:46.667Z,4.58
2023-02-05T09:01:17.011Z,4.54
2023-02-05T09:03:44.291Z,4.56
2023-02-05T09:06:15.017Z,4.47
2023-02-05T09:08:42.631Z,4.55
2023-02-05T09:11:09.201Z,4.62
2023-02-05T09:13:36.188Z,4.63
2023-02-05T09:16:02.819Z,4.69
2023-02-05T09:18:29.348Z,4.73
2023-02-05T09:20:56.781Z,4.79
2023-02-05T09:23:23.284Z,4.83
2023-02-05T09:25:49.763Z,4.79
2023-02-05T09:28:16.429Z,4.81
2023-02-05T09:30:45.983Z,4.74
2023-02-05T09:33:14.156Z,4.63
2023-02-05T09:35:42.062Z,4.55
2023-02-05T09:38:12.672Z,4.42
2023-02-05T09:40:59.725Z,4.29
2023-02-05T09:44:21.003Z,4.21
2023-02-05T09:47:01.418Z,4.30
2023-02-05T09:49:38.084Z,4.50
2023-02-05T09:52:14.838Z,4.35
2023-02-05T09:54:47.614Z,4.68
2023-02-05T09:57:21.408Z,4.82
2023-02-05T09:59:48.294Z,4.86
2023-02-05T10:02:49.829Z,4.72
2023-02-05T10:05:20.930Z,4.79
2023-02-05T10:08:10.891Z,4.80
2023-02-05T10:10:47.682Z,4.65
2023-02-05T10:13:40.829Z,4.68
2023-02-05T10:16:37.509Z,4.81
2023-02-05T10:19:25.185Z,4.79
2023-02-05T10:22:20.527Z,4.72
2023-02-05T10:25:24.854Z,4.85
2023-02-05T10:28:24.579Z,4.99
2023-02-05T10:31:05.197Z,5.04
2023-02-05T10:33:41.556Z,5.08
2023-02-05T10:36:11.458Z,5.09
2023-02-05T10:38:46.264Z,5.09
2023-02-05T10:41:42.885Z,5.03
2023-02-05T10:44:26.528Z,5.01
2023-02-05T10:47:19.676Z,5.13
2023-02-05T10:49:56.320Z,5.19
2023-02-05T10:52:22.913Z,4.83
2023-02-05T10:54:50.770Z,5.05
2023-02-05T10:57:23.362Z,5.24
2023-02-05T10:59:56.524Z,5.54
2023-02-05T11:02:38.159Z,5.34
2023-02-05T11:05:19.633Z,5.44
2023-02-05T11:07:50.518Z,5.43
2023-02-05T11:10:28.254Z,5.61
2023-02-05T11:13:01.953Z,5.48
2023-02-05T11:15:32.585Z,5.56
2023-02-05T11:18:07.132Z,5.51
2023-02-05T11:20:38.833Z,5.56
2023-02-05T11:23:19.580Z,5.52
2023-02-05T11:26:01.659Z,5.23
2023-02-05T11:28:39.695Z,5.27
2023-02-05T11:31:27.990Z,5.33
2023-02-05T11:34:15.484Z,5.22
2023-02-05T11:36:56.032Z,5.30
2023-02-05T11:39:36.427Z,5.30
2023-02-05T11:42:23.790Z,5.34
2023-02-05T11:44:56.463Z,5.49
2023-02-05T11:47:35.806Z,5.55
2023-02-05T11:50:06.033Z,5.74
2023-02-05T11:52:37.722Z,6.05
2023-02-05T11:55:06.443Z,5.82
2023-02-05T11:57:38.812Z,5.80
2023-02-05T12:00:08.189Z,5.75
2023-02-05T12:02:38.358Z,5.91
2023-02-05T12:05:23.821Z,6.04
2023-02-05T12:08:22.052Z,5.95
2023-02-05T12:11:26.146Z,6.17
2023-02-05T12:14:02.028Z,6.32
2023-02-05T12:16:53.557Z,6.44
2023-02-05T12:19:33.896Z,6.39
2023-02-05T12:22:00.443Z,6.64
2023-02-05T12:24:45.031Z,6.63
2023-02-05T12:28:03.219Z,6.48
2023-02-05T12:30:57.953Z,6.60
2023-02-05T12:33:46.698Z,6.55
2023-02-05T12:36:48.231Z,6.45
2023-02-05T12:39:41.805Z,6.28
2023-02-05T12:42:35.532Z,6.25
2023-02-05T12:45:17.189Z,6.26
2023-02-05T12:48:38.957Z,5.97
2023-02-05T12:51:32.517Z,6.04
2023-02-05T12:54:30.324Z,6.15
2023-02-05T12:57:05.899Z,6.36
2023-02-05T12:59:38.637Z,6.44
2023-02-05T13:02:24.926Z,6.44
2023-02-05T13:05:23.789Z,6.73
2023-02-05T13:08:42.645Z,6.54
2023-02-05T13:11:39.824Z,6.32
2023-02-05T13:14:21.899Z,6.26
2023-02-05T13:17:06.507Z,6.27
2023-02-05T13:19:47.929Z,6.46
2023-02-05T13:22:54.328Z,6.56
2023-02-05T13:25:45.143Z,6.47
2023-02-05T13:28:40.025Z,6.48
2023-02-05T13:31:24.430Z,6.43
2023-02-05T13:33:55.124Z,6.50
2023-02-05T13:36:24.390Z,6.51
2023-02-05T13:39:13.416Z,6.58
2023-02-05T13:42:25.654Z,6.64
2023-02-05T13:45:17.136Z,6.75
2023-02-05T13:48:35.233Z,6.64
2023-02-05T13:51:42.957Z,6.65
2023-02-05T13:55:04.865Z,6.25
2023-02-05T13:57:46.635Z,6.15
2023-02-05T14:00:16.481Z,6.21
2023-02-05T14:02:49.434Z,6.24
2023-02-05T14:05:29.374Z,6.29
2023-02-05T14:08:01.806Z,6.29
2023-02-05T14:10:40.541Z,6.23
2023-02-05T14:13:34.396Z,5.97
2023-02-05T14:16:26.581Z,6.03
2023-02-05T14:19:01.984Z,5.88
2023-02-05T14:21:31.416Z,5.93
2023-02-05T14:24:03.552Z,5.88
2023-02-05T14:26:48.041Z,5.70
2023-02-05T14:29:45.881Z,5.64
2023-02-05T14:32:28.457Z,5.66
2023-02-05T14:35:02.342Z,5.61
2023-02-05T14:37:40.712Z,5.87
2023-02-05T14:40:21.114Z,6.18
2023-02-05T14:42:48.338Z,6.13
2023-02-05T14:45:17.325Z,5.74
2023-02-05T14:47:44.934Z,5.78
2023-02-05T14:50:27.779Z,5.98
2023-02-05T14:53:03.769Z,5.50
2023-02-05T14:55:43.251Z,5.94
2023-02-05T14:58:28.276Z,5.97
2023-02-05T15:01:32.946Z,5.89
2023-02-05T15:04:05.298Z,5.59
2023-02-05T15:06:41.535Z,5.58
2023-02-05T15:09:26.091Z,5.24
2023-02-05T15:12:51.387Z,5.26
2023-02-05T15:15:28.910Z,5.19
2023-02-05T15:18:09.326Z,5.34
2023-02-05T15:20:40.277Z,5.54
2023-02-05T15:23:21.688Z,5.56
2023-02-05T15:26:44.973Z,5.60
2023-02-05T15:29:42.351Z,5.44
2023-02-05T15:32:25.490Z,5.36
2023-02-05T15:35:02.491Z,5.42
2023-02-05T15:37:38.440Z,5.28
2023-02-05T15:40:30.899Z,5.37
2023-02-05T15:43:20.355Z,5.48
2023-02-05T15:45:47.414Z,5.45
2023-02-05T15:48:22.448Z,5.35
2023-02-05T15:50:54.765Z,5.34
2023-02-05T15:54:01.763Z,5.42
2023-02-05T15:56:52.056Z,5.27
2023-02-05T15:59:26.607Z,5.33
2023-02-05T16:02:20.367Z,5.35
2023-02-05T16:05:07.397Z,5.41
2023-02-05T16:07:42.503Z,5.44
2023-02-05T16:10:26.303Z,5.49
2023-02-05T16:13:04.733Z,5.39
2023-02-05T16:15:42.295Z,5.33
2023-02-05T16:18:34.143Z,5.33
2023-02-05T16:21:28.095Z,5.39
2023-02-05T16:24:23.354Z,5.40
2023-02-05T16:27:02.865Z,5.42
2023-02-05T16:29:54.700Z,5.32
2023-02-05T16:32:39.631Z,5.40
2023-02-05T16:35:17.258Z,5.38
2023-02-05T16:37:43.788Z,5.40
2023-02-05T16:40:12.301Z,5.33
2023-02-05T16:42:43.774Z,5.35
2023-02-05T16:45:10.449Z,5.18
2023-02-05T16:47:38.893Z,4.91
2023-02-05T16:50:42.581Z,4.87
2023-02-05T16:53:19.244Z,4.83
2023-02-05T16:55:45.839Z,4.67
2023-02-05T16:58:23.176Z,4.66
2023-02-05T17:01:00.474Z,4.76
2023-02-05T17:03:38.913Z,4.73
2023-02-05T17:06:14.350Z,4.78
2023-02-05T17:08:42.406Z,4.90
2023-02-05T17:11:32.762Z,4.79
2023-02-05T17:14:32.605Z,4.69
2023-02-05T17:17:18.751Z,4.81
2023-02-05T17:20:09.891Z,4.99
2023-02-05T17:22:36.534Z,4.99
2023-02-05T17:25:05.452Z,5.11
2023-02-05T17:27:39.655Z,4.85
2023-02-05T17:30:14.258Z,4.90
2023-02-05T17:32:40.782Z,4.82
2023-02-05T17:35:19.326Z,4.80
2023-02-05T17:37:45.851Z,4.80
2023-02-05T17:40:13.063Z,4.92
2023-02-05T17:42:40.100Z,4.91
2023-02-05T17:45:26.956Z,4.82
2023-02-05T17:47:53.665Z,4.90
2023-02-05T17:50:20.577Z,5.01
2023-02-05T17:52:47.482Z,4.94
2023-02-05T17:55:18.240Z,4.88
2023-02-05T17:57:45.635Z,4.93
2023-02-05T18:00:26.024Z,4.97
2023-02-05T18:02:53.724Z,5.06
2023-02-05T18:05:20.761Z,5.03
2023-02-05T18:07:59.525Z,4.86
2023-02-05T18:10:31.028Z,4.90
2023-02-05T18:12:58.312Z,4.73
2023-02-05T18:15:26.519Z,4.72
2023-02-05T18:17:53.523Z,4.60
2023-02-05T18:20:21.245Z,4.66
2023-02-05T18:22:49.067Z,4.61
2023-02-05T18:25:16.033Z,4.77
2023-02-05T18:27:42.751Z,5.01
2023-02-05T18:30:10.339Z,4.91
2023-02-05T18:32:37.073Z,4.86
2023-02-05T18:35:03.997Z,4.86
2023-02-05T18:37:30.547Z,4.85
2023-02-05T18:39:57.014Z,4.88
2023-02-05T18:42:23.549Z,4.90
2023-02-05T18:44:50.025Z,4.80
2023-02-05T18:47:16.515Z,4.82
2023-02-05T18:49:42.992Z,4.87
2023-02-05T18:52:11.823Z,4.73
2023-02-05T18:54:38.305Z,4.63
2023-02-05T18:57:05.072Z,4.45
2023-02-05T18:59:31.959Z,4.20
2023-02-05T19:01:58.836Z,4.32
2023-02-05T19:04:26.821Z,4.46
2023-02-05T19:06:54.490Z,4.45
2023-02-05T19:09:23.857Z,4.61
2023-02-05T19:11:52.049Z,4.59
2023-02-05T19:14:22.034Z,4.61
2023-02-05T19:16:49.990Z,4.57
2023-02-05T19:19:20.940Z,4.56
2023-02-05T19:21:55.230Z,4.34
2023-02-05T19:24:22.843Z,4.44
2023-02-05T19:26:51.126Z,4.45
2023-02-05T19:29:20.281Z,4.20
2023-02-05T19:31:48.005Z,4.40
2023-02-05T19:34:16.056Z,4.59
2023-02-05T19:36:43.448Z,4.55
2023-02-05T19:39:14.121Z,4.57
2023-02-05T19:41:45.345Z,4.47
2023-02-05T19:44:11.924Z,4.56
2023-02-05T19:46:43.919Z,4.38
2023-02-05T19:49:20.453Z,4.36
2023-02-05T19:51:50.640Z,4.45
2023-02-05T19:54:21.143Z,4.53
2023-02-05T19:56:48.441Z,4.44
2023-02-05T19:59:16.715Z,4.57
2023-02-05T20:01:44.585Z,4.95
2023-02-05T20:04:17.448Z,4.78
2023-02-05T20:06:46.489Z,4.71
2023-02-05T20:09:15.181Z,4.71
2023-02-05T20:11:44.789Z,4.55
2023-02-05T20:14:12.438Z,4.61
2023-02-05T20:16:42.498Z,4.75
2023-02-05T20:19:15.817Z,4.70
2023-02-05T20:21:43.161Z,4.60
2023-02-05T20:24:10.671Z,4.26
2023-02-05T20:26:37.899Z,4.52
2023-02-05T20:29:23.232Z,4.45
2023-02-05T20:31:52.036Z,4.34
2023-02-05T20:34:23.485Z,4.28
2023-02-05T20:36:59.744Z,4.44
2023-02-05T20:39:28.865Z,4.70
2023-02-05T20:41:58.228Z,4.38
2023-02-05T20:44:28.312Z,4.38
2023-02-05T20:46:55.076Z,4.52
2023-02-05T20:49:22.485Z,4.56
2023-02-05T20:51:49.048Z,4.35
2023-02-05T20:54:15.640Z,4.32
2023-02-05T20:56:42.231Z,4.20
2023-02-05T20:59:11.534Z,4.16
2023-02-05T21:01:40.330Z,4.25
2023-02-05T21:04:09.312Z,4.26
2023-02-05T21:06:40.193Z,4.42
2023-02-05T21:09:09.398Z,4.25
2023-02-05T21:11:37.907Z,4.17
2023-02-05T21:14:05.755Z,4.20
2023-02-05T21:16:36.178Z,4.07
2023-02-05T21:19:06.045Z,4.22
2023-02-05T21:21:36.057Z,4.17
2023-02-05T21:24:11.271Z,4.32
2023-02-05T21:26:41.367Z,4.20
2023-02-05T21:29:11.601Z,3.90
2023-02-05T21:31:46.336Z,3.98
2023-02-05T21:34:18.733Z,4.01
2023-02-05T21:36:48.065Z,4.16
2023-02-05T21:39:16.072Z,4.47
2023-02-05T21:41:44.774Z,4.16
2023-02-05T21:44:11.791Z,4.09
2023-02-05T21:46:38.808Z,4.10
2023-02-05T21:49:05.588Z,4.36
2023-02-05T21:51:35.386Z,3.78
2023-02-05T21:54:05.178Z,3.55
2023-02-05T21:56:38.120Z,3.45
2023-02-05T21:59:05.666Z,3.49
2023-02-05T22:01:35.715Z,3.42
2023-02-05T22:04:07.115Z,3.34
2023-02-05T22:06:36.241Z,3.46
2023-02-05T22:09:06.597Z,3.47
2023-02-05T22:11:33.142Z,3.31
2023-02-05T22:13:59.672Z,3.33
2023-02-05T22:16:32.542Z,3.27
2023-02-05T22:19:00.974Z,3.67
2023-02-05T22:21:31.626Z,3.42
2023-02-05T22:24:01.288Z,3.29
2023-02-05T22:26:32.757Z,3.24
2023-02-05T22:29:01.391Z,3.18
2023-02-05T22:31:29.496Z,3.37
2023-02-05T22:33:57.288Z,3.50
2023-02-05T22:36:27.628Z,3.44
2023-02-05T22:38:55.747Z,3.75
2023-02-05T22:41:26.484Z,3.51
2023-02-05T22:43:58.420Z,3.42
2023-02-05T22:46:28.483Z,3.37
2023-02-05T22:48:57.433Z,3.58
2023-02-05T22:51:31.743Z,3.73
2023-02-05T22:53:59.452Z,3.58
2023-02-05T22:56:27.510Z,3.56
2023-02-05T22:58:55.441Z,3.71
2023-02-05T23:01:28.814Z,3.60
2023-02-05T23:03:57.198Z,3.55
2023-02-05T23:06:36.728Z,3.58
2023-02-05T23:09:15.102Z,3.62
2023-02-05T23:11:43.006Z,3.65
2023-02-05T23:14:12.738Z,3.48
2023-02-05T23:16:43.442Z,3.49
2023-02-05T23:19:16.577Z,3.52
2023-02-05T23:21:43.216Z,3.48
2023-02-05T23:24:10.691Z,3.35
2023-02-05T23:26:44.218Z,3.40
2023-02-05T23:29:13.787Z,3.47
2023-02-05T23:31:40.832Z,3.55
2023-02-05T23:34:07.374Z,3.51
2023-02-05T23:36:34.343Z,3.71
2023-02-05T23:39:01.227Z,3.54
2023-02-05T23:41:37.177Z,3.52
2023-02-05T23:44:15.859Z,3.48
2023-02-05T23:46:44.788Z,3.52
2023-02-05T23:49:12.514Z,3.47
2023-02-05T23:51:39.720Z,3.55
2023-02-05T23:54:08.417Z,3.54
2023-02-05T23:56:34.959Z,3.35
2023-02-05T23:59:02.054Z,3.38
